sensor_id;sensor_type;location;lat;lon;timestamp;pressure;altitude;pressure_sealevel;temperature;humidity
6425;BME280;12193;42.642;23.384;2023-06-10T00:01:25;94060.94;;;17.43;100.00
6425;BME280;12193;42.642;23.384;2023-06-10T00:03:55;94052.03;;;17.54;100.00
6425;BME280;12193;42.642;23.384;2023-06-10T03:08:25;94028.19;;;16.61;100.00
6425;BME280;12193;42.642;23.384;2023-06-10T03:10:55;94024.78;;;16.61;100.00
6425;BME280;12193;42.642;23.384;2023-06-10T03:13:24;94028.94;;;16.57;100.00
6425;BME280;12193;42.642;23.384;2023-06-10T03:15:56;94023.44;;;16.58;100.00
6425;BME280;12193;42.642;23.384;2023-06-10T03:18:26;94029.84;;;16.72;100.00
6425;BME280;12193;42.642;23.384;2023-06-10T03:20:56;94032.25;;;16.73;100.00
6425;BME280;12193;42.642;23.384;2023-06-10T03:23:28;94028.78;;;16.68;100.00
6425;BME280;12193;42.642;23.384;2023-06-10T03:25:58;94039.78;;;16.65;100.00
6425;BME280;12193;42.642;23.384;2023-06-10T03:28:27;94034.22;;;16.62;100.00
6425;BME280;12193;42.642;23.384;2023-06-10T03:30:57;94047.78;;;16.80;100.00
6425;BME280;12193;42.642;23.384;2023-06-10T03:33:26;94040.56;;;16.97;100.00
6425;BME280;12193;42.642;23.384;2023-06-10T03:35:56;94045.72;;;17.13;100.00
6425;BME280;12193;42.642;23.384;2023-06-10T03:38:28;94048.41;;;17.23;100.00
6425;BME280;12193;42.642;23.384;2023-06-10T03:40:57;94051.47;;;17.42;100.00
6425;BME280;12193;42.642;23.384;2023-06-10T03:43:26;94052.25;;;17.42;100.00
6425;BME280;12193;42.642;23.384;2023-06-10T03:45:57;94056.22;;;17.45;100.00
6425;BME280;12193;42.642;23.384;2023-06-10T03:48:26;94052.78;;;17.44;100.00
6425;BME280;12193;42.642;23.384;2023-06-10T03:50:57;94052.91;;;17.59;100.00
6425;BME280;12193;42.642;23.384;2023-06-10T03:53:28;94051.06;;;17.65;100.00
6425;BME280;12193;42.642;23.384;2023-06-10T03:55:58;94045.25;;;17.53;100.00
6425;BME280;12193;42.642;23.384;2023-06-10T03:58:27;94048.88;;;17.47;100.00
6425;BME280;12193;42.642;23.384;2023-06-10T04:00:57;94056.72;;;17.42;100.00
6425;BME280;12193;42.642;23.384;2023-06-10T04:03:26;94049.06;;;17.35;100.00
6425;BME280;12193;42.642;23.384;2023-06-10T04:05:55;94047.22;;;17.36;100.00
6425;BME280;12193;42.642;23.384;2023-06-10T04:08:24;94056.13;;;17.35;100.00
6425;BME280;12193;42.642;23.384;2023-06-10T04:10:57;94047.97;;;17.31;100.00
6425;BME280;12193;42.642;23.384;2023-06-10T04:13:26;94058.88;;;17.18;100.00
6425;BME280;12193;42.642;23.384;2023-06-10T04:15:55;94059.84;;;17.07;100.00
6425;BME280;12193;42.642;23.384;2023-06-10T04:18:25;94054.34;;;17.09;100.00
6425;BME280;12193;42.642;23.384;2023-06-10T04:20:55;94056.38;;;17.02;100.00
6425;BME280;12193;42.642;23.384;2023-06-10T04:23:24;94064.22;;;16.97;100.00
6425;BME280;12193;42.642;23.384;2023-06-10T04:25:56;94067.16;;;16.74;100.00
6425;BME280;12193;42.642;23.384;2023-06-10T04:28:25;94063.66;;;16.21;100.00
6425;BME280;12193;42.642;23.384;2023-06-10T04:30:54;94073.66;;;16.24;100.00
6425;BME280;12193;42.642;23.384;2023-06-10T04:33:24;94064.75;;;16.25;100.00
6425;BME280;12193;42.642;23.384;2023-06-10T04:35:54;94063.00;;;16.09;100.00
6425;BME280;12193;42.642;23.384;2023-06-10T04:38:23;94061.91;;;16.05;100.00
6425;BME280;12193;42.642;23.384;2023-06-10T04:40:55;94062.94;;;15.82;100.00
6425;BME280;12193;42.642;23.384;2023-06-10T04:43:25;94066.72;;;16.13;100.00
6425;BME280;12193;42.642;23.384;2023-06-10T04:45:54;94073.63;;;15.97;100.00
6425;BME280;12193;42.642;23.384;2023-06-10T04:48:23;94068.44;;;16.02;100.00
6425;BME280;12193;42.642;23.384;2023-06-10T04:50:53;94067.25;;;15.93;100.00
6425;BME280;12193;42.642;23.384;2023-06-10T04:53:22;94059.59;;;15.87;100.00
6425;BME280;12193;42.642;23.384;2023-06-10T04:55:52;94067.88;;;16.00;100.00
6425;BME280;12193;42.642;23.384;2023-06-10T04:58:24;94056.03;;;15.76;100.00
6425;BME280;12193;42.642;23.384;2023-06-10T05:00:53;94057.09;;;15.97;100.00
6425;BME280;12193;42.642;23.384;2023-06-10T05:03:22;94064.59;;;16.10;100.00
6425;BME280;12193;42.642;23.384;2023-06-10T05:05:52;94060.72;;;16.34;100.00
6425;BME280;12193;42.642;23.384;2023-06-10T05:08:21;94062.50;;;16.55;100.00
6425;BME280;12193;42.642;23.384;2023-06-10T05:10:50;94059.75;;;16.45;100.00
6425;BME280;12193;42.642;23.384;2023-06-10T05:13:20;94058.69;;;16.67;100.00
6425;BME280;12193;42.642;23.384;2023-06-10T05:15:52;94060.16;;;16.58;100.00
6425;BME280;12193;42.642;23.384;2023-06-10T05:18:21;94061.31;;;16.67;100.00
6425;BME280;12193;42.642;23.384;2023-06-10T05:20:50;94059.78;;;16.71;100.00
6425;BME280;12193;42.642;23.384;2023-06-10T05:23:20;94051.94;;;16.76;100.00
6425;BME280;12193;42.642;23.384;2023-06-10T05:25:49;94055.94;;;16.83;100.00
6425;BME280;12193;42.642;23.384;2023-06-10T05:28:19;94057.22;;;17.07;100.00
6425;BME280;12193;42.642;23.384;2023-06-10T05:30:51;94056.53;;;17.22;100.00
6425;BME280;12193;42.642;23.384;2023-06-10T05:33:20;94061.69;;;17.38;100.00
6425;BME280;12193;42.642;23.384;2023-06-10T05:35:50;94064.09;;;17.45;100.00
6425;BME280;12193;42.642;23.384;2023-06-10T05:38:19;94053.88;;;17.48;100.00
6425;BME280;12193;42.642;23.384;2023-06-10T05:40:48;94069.03;;;17.77;100.00
6425;BME280;12193;42.642;23.384;2023-06-10T05:43:17;94063.53;;;17.79;100.00
6425;BME280;12193;42.642;23.384;2023-06-10T05:45:47;94063.28;;;17.85;100.00
6425;BME280;12193;42.642;23.384;2023-06-10T05:48:19;94068.00;;;17.83;100.00
6425;BME280;12193;42.642;23.384;2023-06-10T05:50:48;94068.34;;;17.97;100.00
6425;BME280;12193;42.642;23.384;2023-06-10T05:53:17;94066.84;;;18.16;100.00
6425;BME280;12193;42.642;23.384;2023-06-10T05:55:47;94075.41;;;18.43;100.00
6425;BME280;12193;42.642;23.384;2023-06-10T05:58:16;94076.00;;;18.65;100.00
6425;BME280;12193;42.642;23.384;2023-06-10T06:00:45;94087.56;;;18.69;100.00
6425;BME280;12193;42.642;23.384;2023-06-10T06:03:15;94077.91;;;18.94;100.00
6425;BME280;12193;42.642;23.384;2023-06-10T06:05:46;94083.22;;;19.19;100.00
6425;BME280;12193;42.642;23.384;2023-06-10T06:08:16;94087.94;;;19.17;100.00
6425;BME280;12193;42.642;23.384;2023-06-10T06:10:46;94082.44;;;19.38;100.00
6425;BME280;12193;42.642;23.384;2023-06-10T06:13:15;94083.72;;;19.61;100.00
6425;BME280;12193;42.642;23.384;2023-06-10T06:15:44;94082.66;;;19.72;100.00
6425;BME280;12193;42.642;23.384;2023-06-10T06:18:14;94087.19;;;19.46;100.00
6425;BME280;12193;42.642;23.384;2023-06-10T06:20:47;94077.94;;;19.49;100.00
6425;BME280;12193;42.642;23.384;2023-06-10T06:23:16;94077.66;;;19.60;100.00
6425;BME280;12193;42.642;23.384;2023-06-10T06:25:45;94085.59;;;19.20;100.00
6425;BME280;12193;42.642;23.384;2023-06-10T06:28:15;94076.84;;;19.00;100.00
6425;BME280;12193;42.642;23.384;2023-06-10T06:30:45;94064.50;;;19.20;100.00
6425;BME280;12193;42.642;23.384;2023-06-10T06:33:14;94070.59;;;19.16;100.00
6425;BME280;12193;42.642;23.384;2023-06-10T06:35:43;94070.06;;;19.14;100.00
6425;BME280;12193;42.642;23.384;2023-06-10T06:38:15;94082.41;;;19.13;100.00
6425;BME280;12193;42.642;23.384;2023-06-10T06:40:44;94077.94;;;19.19;100.00
6425;BME280;12193;42.642;23.384;2023-06-10T06:43:14;94076.63;;;19.51;100.00
6425;BME280;12193;42.642;23.384;2023-06-10T06:45:43;94066.28;;;19.80;100.00
6425;BME280;12193;42.642;23.384;2023-06-10T06:48:12;94062.59;;;19.86;100.00
6425;BME280;12193;42.642;23.384;2023-06-10T06:50:42;94071.00;;;20.12;100.00
6425;BME280;12193;42.642;23.384;2023-06-10T06:53:11;94062.53;;;20.15;100.00
6425;BME280;12193;42.642;23.384;2023-06-10T06:55:43;94065.72;;;20.07;100.00
6425;BME280;12193;42.642;23.384;2023-06-10T06:58:12;94060.72;;;19.91;100.00
6425;BME280;12193;42.642;23.384;2023-06-10T07:00:41;94062.06;;;19.93;100.00
6425;BME280;12193;42.642;23.384;2023-06-10T07:03:10;94060.06;;;20.34;100.00
6425;BME280;12193;42.642;23.384;2023-06-10T07:05:39;94063.84;;;20.71;100.00
6425;BME280;12193;42.642;23.384;2023-06-10T07:08:09;94061.44;;;20.75;100.00
6425;BME280;12193;42.642;23.384;2023-06-10T07:10:38;94068.53;;;20.89;100.00
6425;BME280;12193;42.642;23.384;2023-06-10T07:13:10;94059.75;;;21.37;100.00
6425;BME280;12193;42.642;23.384;2023-06-10T07:15:39;94071.13;;;21.66;100.00
6425;BME280;12193;42.642;23.384;2023-06-10T07:18:09;94070.69;;;22.10;100.00
6425;BME280;12193;42.642;23.384;2023-06-10T07:20:38;94060.56;;;22.41;100.00
6425;BME280;12193;42.642;23.384;2023-06-10T07:23:07;94060.16;;;22.52;100.00
6425;BME280;12193;42.642;23.384;2023-06-10T07:25:37;94068.78;;;23.55;100.00
6425;BME280;12193;42.642;23.384;2023-06-10T07:28:06;94063.69;;;23.72;98.14
6425;BME280;12193;42.642;23.384;2023-06-10T07:30:38;94052.19;;;24.08;96.89
6425;BME280;12193;42.642;23.384;2023-06-10T07:33:07;94050.25;;;24.54;93.60
6425;BME280;12193;42.642;23.384;2023-06-10T07:35:37;94049.97;;;25.04;92.18
6425;BME280;12193;42.642;23.384;2023-06-10T07:38:09;94050.94;;;26.26;84.95
6425;BME280;12193;42.642;23.384;2023-06-10T07:40:38;94040.13;;;25.92;84.65
6425;BME280;12193;42.642;23.384;2023-06-10T07:43:08;94051.38;;;26.20;81.84
6425;BME280;12193;42.642;23.384;2023-06-10T07:45:40;94041.00;;;24.24;89.08
6425;BME280;12193;42.642;23.384;2023-06-10T07:48:09;94041.13;;;23.88;87.76
6425;BME280;12193;42.642;23.384;2023-06-10T07:50:39;94048.03;;;24.83;85.25
6425;BME280;12193;42.642;23.384;2023-06-10T07:53:08;94048.56;;;25.20;83.24
6425;BME280;12193;42.642;23.384;2023-06-10T07:55:37;94051.22;;;25.42;80.15
6425;BME280;12193;42.642;23.384;2023-06-10T07:58:07;94051.34;;;25.81;78.48
6425;BME280;12193;42.642;23.384;2023-06-10T08:00:39;94048.00;;;25.97;76.84
6425;BME280;12193;42.642;23.384;2023-06-10T08:03:08;94050.50;;;26.02;76.04
6425;BME280;12193;42.642;23.384;2023-06-10T08:05:38;94044.63;;;25.04;75.28
6425;BME280;12193;42.642;23.384;2023-06-10T08:08:08;94036.34;;;24.57;77.91
6425;BME280;12193;42.642;23.384;2023-06-10T08:10:37;94044.38;;;25.28;76.37
6425;BME280;12193;42.642;23.384;2023-06-10T08:13:07;94051.44;;;25.98;76.43
6425;BME280;12193;42.642;23.384;2023-06-10T08:15:39;94040.13;;;26.61;74.22
6425;BME280;12193;42.642;23.384;2023-06-10T08:18:09;94038.84;;;25.02;72.68
6425;BME280;12193;42.642;23.384;2023-06-10T08:20:38;94038.63;;;26.08;70.99
6425;BME280;12193;42.642;23.384;2023-06-10T08:23:07;94034.03;;;26.78;67.51
6425;BME280;12193;42.642;23.384;2023-06-10T08:25:36;94032.75;;;26.67;69.76
6425;BME280;12193;42.642;23.384;2023-06-10T08:28:06;94024.22;;;26.09;67.85
6425;BME280;12193;42.642;23.384;2023-06-10T08:30:35;94031.66;;;26.21;61.91
6425;BME280;12193;42.642;23.384;2023-06-10T08:33:07;94022.16;;;26.06;61.62
6425;BME280;12193;42.642;23.384;2023-06-10T08:35:36;94021.94;;;26.72;55.79
6425;BME280;12193;42.642;23.384;2023-06-10T08:38:05;94021.41;;;26.44;53.08
6425;BME280;12193;42.642;23.384;2023-06-10T08:40:35;94025.16;;;27.42;50.88
6425;BME280;12193;42.642;23.384;2023-06-10T08:43:06;94014.63;;;27.45;52.02
6425;BME280;12193;42.642;23.384;2023-06-10T08:45:36;94009.56;;;27.52;50.44
6425;BME280;12193;42.642;23.384;2023-06-10T08:48:10;94012.97;;;26.12;51.69
6425;BME280;12193;42.642;23.384;2023-06-10T08:50:41;94008.59;;;25.33;53.44
6425;BME280;12193;42.642;23.384;2023-06-10T08:53:14;94005.19;;;26.88;50.75
6425;BME280;12193;42.642;23.384;2023-06-10T08:55:50;94009.28;;;27.45;49.71
6425;BME280;12193;42.642;23.384;2023-06-10T08:58:21;94000.41;;;29.11;45.12
6425;BME280;12193;42.642;23.384;2023-06-10T09:00:51;93989.84;;;29.14;46.64
6425;BME280;12193;42.642;23.384;2023-06-10T09:03:24;94001.31;;;28.37;46.81
6425;BME280;12193;42.642;23.384;2023-06-10T09:05:53;93989.78;;;28.07;48.55
6425;BME280;12193;42.642;23.384;2023-06-10T09:08:24;94000.81;;;27.09;45.68
6425;BME280;12193;42.642;23.384;2023-06-10T09:10:53;93991.38;;;27.29;46.26
6425;BME280;12193;42.642;23.384;2023-06-10T09:13:22;93991.19;;;27.50;50.09
6425;BME280;12193;42.642;23.384;2023-06-10T09:15:52;93980.94;;;27.78;49.67
6425;BME280;12193;42.642;23.384;2023-06-10T09:18:25;93984.56;;;26.55;49.58
6425;BME280;12193;42.642;23.384;2023-06-10T09:20:54;93982.19;;;26.53;47.94
6425;BME280;12193;42.642;23.384;2023-06-10T09:23:24;93985.06;;;26.91;48.20
6425;BME280;12193;42.642;23.384;2023-06-10T09:25:57;93978.78;;;26.95;49.73
6425;BME280;12193;42.642;23.384;2023-06-10T09:28:27;93980.19;;;27.69;47.26
6425;BME280;12193;42.642;23.384;2023-06-10T09:31:06;93983.59;;;27.78;44.31
6425;BME280;12193;42.642;23.384;2023-06-10T09:33:39;93971.06;;;28.07;43.78
6425;BME280;12193;42.642;23.384;2023-06-10T09:36:09;93971.78;;;28.33;43.13
6425;BME280;12193;42.642;23.384;2023-06-10T09:38:38;93976.22;;;28.21;43.30
6425;BME280;12193;42.642;23.384;2023-06-10T09:41:07;93974.63;;;27.91;44.83
6425;BME280;12193;42.642;23.384;2023-06-10T09:43:40;93969.22;;;27.45;44.70
6425;BME280;12193;42.642;23.384;2023-06-10T09:46:17;93970.88;;;26.39;47.04
6425;BME280;12193;42.642;23.384;2023-06-10T09:48:50;93965.78;;;27.28;46.63
6425;BME280;12193;42.642;23.384;2023-06-10T09:51:19;93962.06;;;28.78;42.72
6425;BME280;12193;42.642;23.384;2023-06-10T09:53:49;93956.06;;;29.22;42.19
6425;BME280;12193;42.642;23.384;2023-06-10T09:56:20;93953.69;;;28.59;42.59
6425;BME280;12193;42.642;23.384;2023-06-10T09:58:53;93948.66;;;28.86;41.80
6425;BME280;12193;42.642;23.384;2023-06-10T10:01:22;93952.84;;;28.47;43.57
6425;BME280;12193;42.642;23.384;2023-06-10T10:03:55;93957.09;;;27.56;45.64
6425;BME280;12193;42.642;23.384;2023-06-10T10:06:24;93954.44;;;26.54;48.43
6425;BME280;12193;42.642;23.384;2023-06-10T10:08:54;93956.25;;;26.29;49.29
6425;BME280;12193;42.642;23.384;2023-06-10T10:11:24;93953.06;;;26.57;47.32
6425;BME280;12193;42.642;23.384;2023-06-10T10:13:53;93944.38;;;27.61;44.86
6425;BME280;12193;42.642;23.384;2023-06-10T10:16:26;93933.56;;;29.02;41.51
6425;BME280;12193;42.642;23.384;2023-06-10T10:19:05;93933.59;;;27.33;43.49
6425;BME280;12193;42.642;23.384;2023-06-10T10:21:39;93930.16;;;28.44;43.02
6425;BME280;12193;42.642;23.384;2023-06-10T10:24:23;93927.84;;;29.45;40.83
6425;BME280;12193;42.642;23.384;2023-06-10T10:26:58;93929.81;;;29.15;43.53
6425;BME280;12193;42.642;23.384;2023-06-10T10:29:38;93928.47;;;28.89;44.04
6425;BME280;12193;42.642;23.384;2023-06-10T10:32:08;93927.66;;;28.68;43.95
6425;BME280;12193;42.642;23.384;2023-06-10T10:34:48;93926.97;;;28.30;43.57
6425;BME280;12193;42.642;23.384;2023-06-10T10:37:19;93929.81;;;26.83;44.01
6425;BME280;12193;42.642;23.384;2023-06-10T10:39:49;93931.84;;;26.94;45.11
6425;BME280;12193;42.642;23.384;2023-06-10T10:42:19;93925.28;;;27.09;46.34
6425;BME280;12193;42.642;23.384;2023-06-10T10:44:49;93924.19;;;26.59;47.49
6425;BME280;12193;42.642;23.384;2023-06-10T10:47:21;93922.41;;;25.82;48.34
6425;BME280;12193;42.642;23.384;2023-06-10T10:49:54;93917.59;;;26.82;44.88
6425;BME280;12193;42.642;23.384;2023-06-10T10:52:25;93912.00;;;27.54;42.02
6425;BME280;12193;42.642;23.384;2023-06-10T10:54:55;93912.88;;;27.13;45.85
6425;BME280;12193;42.642;23.384;2023-06-10T10:57:28;93912.25;;;27.16;42.57
6425;BME280;12193;42.642;23.384;2023-06-10T10:59:59;93912.09;;;26.95;43.43
6425;BME280;12193;42.642;23.384;2023-06-10T11:02:35;93897.94;;;27.83;43.48
6425;BME280;12193;42.642;23.384;2023-06-10T11:05:09;93907.22;;;26.97;46.20
6425;BME280;12193;42.642;23.384;2023-06-10T11:07:38;93906.28;;;26.93;47.33
6425;BME280;12193;42.642;23.384;2023-06-10T11:10:09;93900.50;;;27.62;46.31
6425;BME280;12193;42.642;23.384;2023-06-10T11:12:51;93894.84;;;26.84;46.38
6425;BME280;12193;42.642;23.384;2023-06-10T11:15:23;93887.28;;;28.61;42.06
6425;BME280;12193;42.642;23.384;2023-06-10T11:18:08;93879.91;;;28.58;43.35
6425;BME280;12193;42.642;23.384;2023-06-10T11:20:51;93880.06;;;27.04;46.10
6425;BME280;12193;42.642;23.384;2023-06-10T11:23:26;93878.38;;;24.71;51.71
6425;BME280;12193;42.642;23.384;2023-06-10T11:26:09;93868.47;;;25.07;52.25
6425;BME280;12193;42.642;23.384;2023-06-10T11:28:39;93868.59;;;25.02;52.01
6425;BME280;12193;42.642;23.384;2023-06-10T11:31:09;93875.44;;;25.94;49.50
6425;BME280;12193;42.642;23.384;2023-06-10T11:33:48;93872.69;;;26.25;49.42
6425;BME280;12193;42.642;23.384;2023-06-10T11:36:20;93866.56;;;27.17;47.52
6425;BME280;12193;42.642;23.384;2023-06-10T11:38:50;93870.97;;;27.13;46.33
6425;BME280;12193;42.642;23.384;2023-06-10T11:41:23;93863.66;;;27.85;45.14
6425;BME280;12193;42.642;23.384;2023-06-10T11:43:53;93856.06;;;27.58;45.94
6425;BME280;12193;42.642;23.384;2023-06-10T11:46:23;93858.34;;;27.31;45.53
6425;BME280;12193;42.642;23.384;2023-06-10T11:48:54;93863.38;;;25.88;47.82
6425;BME280;12193;42.642;23.384;2023-06-10T11:51:28;93854.00;;;25.22;48.74
6425;BME280;12193;42.642;23.384;2023-06-10T11:53:58;93850.69;;;25.94;49.03
6425;BME280;12193;42.642;23.384;2023-06-10T11:56:28;93855.56;;;27.27;45.13
6425;BME280;12193;42.642;23.384;2023-06-10T11:58:59;93852.31;;;26.79;45.02
6425;BME280;12193;42.642;23.384;2023-06-10T12:01:31;93854.66;;;26.22;45.16
6425;BME280;12193;42.642;23.384;2023-06-10T12:04:02;93847.59;;;27.10;43.54
6425;BME280;12193;42.642;23.384;2023-06-10T12:06:42;93843.34;;;27.92;40.07
6425;BME280;12193;42.642;23.384;2023-06-10T12:09:18;93843.97;;;28.18;40.03
6425;BME280;12193;42.642;23.384;2023-06-10T12:11:49;93842.19;;;27.73;43.32
6425;BME280;12193;42.642;23.384;2023-06-10T12:17:19;93836.00;;;27.44;45.14
6425;BME280;12193;42.642;23.384;2023-06-10T12:19:48;93838.38;;;27.45;45.40
6425;BME280;12193;42.642;23.384;2023-06-10T12:22:21;93829.59;;;27.36;45.91
6425;BME280;12193;42.642;23.384;2023-06-10T12:25:01;93833.44;;;27.18;45.46
6425;BME280;12193;42.642;23.384;2023-06-10T12:27:33;93835.44;;;27.75;44.48
6425;BME280;12193;42.642;23.384;2023-06-10T12:30:05;93837.47;;;27.33;43.41
6425;BME280;12193;42.642;23.384;2023-06-10T12:32:36;93834.31;;;27.76;43.26
6425;BME280;12193;42.642;23.384;2023-06-10T12:35:06;93834.50;;;27.26;42.52
6425;BME280;12193;42.642;23.384;2023-06-10T12:37:39;93830.50;;;26.86;42.14
6425;BME280;12193;42.642;23.384;2023-06-10T12:40:09;93830.16;;;27.87;41.03
6425;BME280;12193;42.642;23.384;2023-06-10T12:42:39;93821.00;;;27.68;40.31
6425;BME280;12193;42.642;23.384;2023-06-10T12:45:09;93823.31;;;26.52;43.35
6425;BME280;12193;42.642;23.384;2023-06-10T12:47:39;93819.41;;;26.50;43.44
6425;BME280;12193;42.642;23.384;2023-06-10T12:50:09;93813.56;;;26.31;44.26
6425;BME280;12193;42.642;23.384;2023-06-10T12:52:41;93806.84;;;26.50;43.10
6425;BME280;12193;42.642;23.384;2023-06-10T12:55:11;93816.41;;;26.43;41.65
6425;BME280;12193;42.642;23.384;2023-06-10T12:57:48;93819.97;;;25.88;43.22
6425;BME280;12193;42.642;23.384;2023-06-10T13:00:19;93816.88;;;26.20;42.79
6425;BME280;12193;42.642;23.384;2023-06-10T13:02:49;93820.47;;;26.15;44.26
6425;BME280;12193;42.642;23.384;2023-06-10T13:05:18;93823.47;;;26.39;42.96
6425;BME280;12193;42.642;23.384;2023-06-10T13:07:51;93820.00;;;26.38;43.08
6425;BME280;12193;42.642;23.384;2023-06-10T13:10:21;93820.97;;;25.70;45.48
6425;BME280;12193;42.642;23.384;2023-06-10T13:12:51;93824.72;;;25.22;46.45
6425;BME280;12193;42.642;23.384;2023-06-10T13:15:21;93817.91;;;25.07;47.78
6425;BME280;12193;42.642;23.384;2023-06-10T13:17:53;93822.41;;;24.98;48.30
6425;BME280;12193;42.642;23.384;2023-06-10T13:20:22;93819.84;;;25.15;48.54
6425;BME280;12193;42.642;23.384;2023-06-10T13:22:55;93819.41;;;25.22;49.42
6425;BME280;12193;42.642;23.384;2023-06-10T13:25:24;93826.16;;;25.28;50.16
6425;BME280;12193;42.642;23.384;2023-06-10T13:27:53;93827.78;;;25.37;50.32
6425;BME280;12193;42.642;23.384;2023-06-10T13:30:23;93824.44;;;25.23;49.58
6425;BME280;12193;42.642;23.384;2023-06-10T13:32:52;93826.91;;;25.20;50.23
6425;BME280;12193;42.642;23.384;2023-06-10T13:35:22;93831.06;;;25.12;51.00
6425;BME280;12193;42.642;23.384;2023-06-10T13:37:54;93833.56;;;25.09;52.60
6425;BME280;12193;42.642;23.384;2023-06-10T13:40:23;93837.19;;;24.82;52.87
6425;BME280;12193;42.642;23.384;2023-06-10T13:42:52;93843.72;;;24.41;54.74
6425;BME280;12193;42.642;23.384;2023-06-10T13:45:22;93837.69;;;24.27;57.01
6425;BME280;12193;42.642;23.384;2023-06-10T13:47:51;93829.13;;;23.95;61.18
6425;BME280;12193;42.642;23.384;2023-06-10T13:50:21;93821.97;;;23.68;63.90
6425;BME280;12193;42.642;23.384;2023-06-10T13:52:50;93834.16;;;23.29;66.23
6425;BME280;12193;42.642;23.384;2023-06-10T13:55:22;93840.09;;;22.94;68.78
6425;BME280;12193;42.642;23.384;2023-06-10T13:57:51;93845.19;;;22.59;71.36
6425;BME280;12193;42.642;23.384;2023-06-10T14:00:21;93859.88;;;22.14;74.34
6425;BME280;12193;42.642;23.384;2023-06-10T14:02:51;93858.59;;;22.12;76.04
6425;BME280;12193;42.642;23.384;2023-06-10T14:05:20;93868.38;;;21.93;76.66
6425;BME280;12193;42.642;23.384;2023-06-10T14:07:50;93866.06;;;22.10;76.61
6425;BME280;12193;42.642;23.384;2023-06-10T14:10:22;93877.50;;;22.42;75.84
6425;BME280;12193;42.642;23.384;2023-06-10T14:12:51;93891.75;;;22.46;75.67
6425;BME280;12193;42.642;23.384;2023-06-10T14:15:21;93901.69;;;22.73;75.48
6425;BME280;12193;42.642;23.384;2023-06-10T14:17:50;93905.25;;;22.63;74.13
6425;BME280;12193;42.642;23.384;2023-06-10T14:20:19;93908.81;;;22.91;75.28
6425;BME280;12193;42.642;23.384;2023-06-10T14:22:49;93906.81;;;22.83;75.12
6425;BME280;12193;42.642;23.384;2023-06-10T14:25:18;93903.06;;;23.02;74.39
6425;BME280;12193;42.642;23.384;2023-06-10T14:27:51;93908.41;;;22.65;73.35
6425;BME280;12193;42.642;23.384;2023-06-10T14:30:20;93906.06;;;22.45;75.03
6425;BME280;12193;42.642;23.384;2023-06-10T14:32:50;93897.81;;;22.28;76.39
6425;BME280;12193;42.642;23.384;2023-06-10T14:35:19;93884.16;;;22.40;75.80
6425;BME280;12193;42.642;23.384;2023-06-10T14:37:49;93884.44;;;22.57;75.37
6425;BME280;12193;42.642;23.384;2023-06-10T14:40:18;93885.91;;;22.81;75.17
6425;BME280;12193;42.642;23.384;2023-06-10T14:42:50;93872.69;;;22.63;74.85
6425;BME280;12193;42.642;23.384;2023-06-10T14:45:19;93876.63;;;22.28;75.89
6425;BME280;12193;42.642;23.384;2023-06-10T14:47:49;93872.56;;;22.17;75.47
6425;BME280;12193;42.642;23.384;2023-06-10T14:50:18;93866.19;;;22.37;77.03
6425;BME280;12193;42.642;23.384;2023-06-10T14:52:48;93854.88;;;22.50;73.92
6425;BME280;12193;42.642;23.384;2023-06-10T14:55:17;93850.03;;;22.70;75.86
6425;BME280;12193;42.642;23.384;2023-06-10T14:57:52;93851.69;;;22.66;72.45
6425;BME280;12193;42.642;23.384;2023-06-10T15:00:21;93843.97;;;22.70;71.65
6425;BME280;12193;42.642;23.384;2023-06-10T15:02:51;93845.53;;;22.84;71.37
6425;BME280;12193;42.642;23.384;2023-06-10T15:05:23;93845.00;;;23.01;69.48
6425;BME280;12193;42.642;23.384;2023-06-10T15:07:53;93838.13;;;23.00;70.16
6425;BME280;12193;42.642;23.384;2023-06-10T15:10:22;93843.72;;;22.98;70.20
6425;BME280;12193;42.642;23.384;2023-06-10T15:12:54;93842.53;;;23.04;67.75
6425;BME280;12193;42.642;23.384;2023-06-10T15:15:24;93852.16;;;22.00;83.66
6425;BME280;12193;42.642;23.384;2023-06-10T15:17:54;93850.84;;;21.55;92.41
6425;BME280;12193;42.642;23.384;2023-06-10T15:20:23;93848.28;;;21.27;95.71
6425;BME280;12193;42.642;23.384;2023-06-10T15:22:52;93853.47;;;20.85;98.60
6425;BME280;12193;42.642;23.384;2023-06-10T15:25:22;93858.41;;;20.30;100.00
6425;BME280;12193;42.642;23.384;2023-06-10T15:27:55;93859.84;;;20.17;100.00
6425;BME280;12193;42.642;23.384;2023-06-10T15:30:25;93846.94;;;20.44;100.00
6425;BME280;12193;42.642;23.384;2023-06-10T15:32:54;93857.31;;;20.36;100.00
6425;BME280;12193;42.642;23.384;2023-06-10T15:35:23;93846.09;;;20.49;100.00
6425;BME280;12193;42.642;23.384;2023-06-10T15:37:52;93862.22;;;20.47;100.00
6425;BME280;12193;42.642;23.384;2023-06-10T15:40:22;93841.44;;;20.41;100.00
6425;BME280;12193;42.642;23.384;2023-06-10T15:42:54;93847.84;;;20.30;100.00
6425;BME280;12193;42.642;23.384;2023-06-10T15:45:24;93853.03;;;20.73;100.00
6425;BME280;12193;42.642;23.384;2023-06-10T15:47:53;93851.69;;;21.04;100.00
6425;BME280;12193;42.642;23.384;2023-06-10T15:50:22;93866.44;;;21.10;100.00
6425;BME280;12193;42.642;23.384;2023-06-10T15:52:52;93856.03;;;20.62;100.00
6425;BME280;12193;42.642;23.384;2023-06-10T15:55:21;93868.41;;;20.66;100.00
6425;BME280;12193;42.642;23.384;2023-06-10T15:57:54;93867.81;;;20.46;100.00
6425;BME280;12193;42.642;23.384;2023-06-10T16:00:26;93863.56;;;20.78;100.00
6425;BME280;12193;42.642;23.384;2023-06-10T16:02:55;93867.75;;;20.84;100.00
6425;BME280;12193;42.642;23.384;2023-06-10T16:05:24;93875.78;;;21.02;100.00
6425;BME280;12193;42.642;23.384;2023-06-10T16:07:54;93873.09;;;21.07;100.00
6425;BME280;12193;42.642;23.384;2023-06-10T16:10:24;93871.22;;;20.80;100.00
6425;BME280;12193;42.642;23.384;2023-06-10T16:12:56;93869.31;;;20.85;100.00
6425;BME280;12193;42.642;23.384;2023-06-10T16:15:25;93870.97;;;20.76;99.57
6425;BME280;12193;42.642;23.384;2023-06-10T16:17:54;93876.13;;;20.63;98.81